createdAt,value
2023-04-07T00:01:44.535Z,24.00
2023-04-07T00:06:48.748Z,22.40
2023-04-07T00:11:51.833Z,22.20
2023-04-07T00:16:54.624Z,20.40
2023-04-07T00:21:58.716Z,23.60
2023-04-07T00:27:02.100Z,22.60
2023-04-07T00:32:04.934Z,22.00
2023-04-07T00:37:09.413Z,23.20
2023-04-07T00:42:12.315Z,23.00
2023-04-07T00:47:16.502Z,23.00
2023-04-07T00:52:27.182Z,22.00
2023-04-07T00:57:30.018Z,21.40
2023-04-07T01:02:38.918Z,21.00
2023-04-07T01:07:53.727Z,21.40
2023-04-07T01:13:06.745Z,22.00
2023-04-07T01:18:14.313Z,20.00
2023-04-07T01:23:26.619Z,19.80
2023-04-07T01:28:45.966Z,21.00
2023-04-07T01:33:51.523Z,19.00
2023-04-07T01:38:54.940Z,20.00
2023-04-07T01:43:58.676Z,18.80
2023-04-07T01:49:03.986Z,18.20
2023-04-07T01:54:07.186Z,20.60
2023-04-07T01:59:10.674Z,19.20
2023-04-07T02:04:23.252Z,18.00
2023-04-07T02:09:31.100Z,19.80
2023-04-07T02:14:35.277Z,18.80
2023-04-07T02:19:47.650Z,17.40
2023-04-07T02:24:50.840Z,19.40
2023-04-07T02:29:54.314Z,17.00
2023-04-07T02:35:00.841Z,16.40
2023-04-07T02:40:04.232Z,19.00
2023-04-07T02:45:08.770Z,15.40
2023-04-07T02:50:14.566Z,18.20
2023-04-07T02:55:18.488Z,17.20
2023-04-07T03:00:21.789Z,15.80
2023-04-07T03:05:38.281Z,16.40
2023-04-07T03:10:42.345Z,16.00
2023-04-07T03:15:46.077Z,15.20
2023-04-07T03:20:52.886Z,15.20
2023-04-07T03:25:55.902Z,15.40
2023-04-07T03:30:59.271Z,17.00
2023-04-07T03:36:03.614Z,17.00
2023-04-07T03:41:07.133Z,15.20
2023-04-07T03:46:10.265Z,16.00
2023-04-07T03:51:14.909Z,14.60
2023-04-07T03:56:17.952Z,12.25
2023-04-07T04:01:24.300Z,15.00
2023-04-07T04:06:28.861Z,16.80
2023-04-07T04:11:39.892Z,15.40
2023-04-07T04:16:43.281Z,14.20
2023-04-07T04:22:01.753Z,13.00
2023-04-07T04:27:10.267Z,15.80
2023-04-07T04:32:13.109Z,13.50
2023-04-07T04:37:20.039Z,13.00
2023-04-07T04:42:23.136Z,13.25
2023-04-07T04:47:27.254Z,13.00
2023-04-07T04:52:31.874Z,13.20
2023-04-07T04:57:36.160Z,14.75
2023-04-07T05:02:43.833Z,14.25
2023-04-07T05:07:48.665Z,13.00
2023-04-07T05:12:52.010Z,12.00
2023-04-07T05:17:54.964Z,13.75
2023-04-07T05:23:03.255Z,11.50
2023-04-07T05:28:09.397Z,12.25
2023-04-07T05:33:13.275Z,11.75
2023-04-07T05:38:22.434Z,14.25
2023-04-07T05:43:26.450Z,13.25
2023-04-07T05:48:29.314Z,12.75
2023-04-07T05:53:33.761Z,12.50
2023-04-07T05:58:36.716Z,12.25
2023-04-07T06:03:41.166Z,12.75
2023-04-07T06:08:56.145Z,12.75
2023-04-07T06:14:00.412Z,12.00
2023-04-07T06:19:03.686Z,10.75
2023-04-07T06:24:08.777Z,11.50
2023-04-07T06:29:11.821Z,11.00
2023-04-07T06:34:15.154Z,12.50
2023-04-07T06:39:19.968Z,8.75
2023-04-07T06:44:22.746Z,9.75
2023-04-07T06:49:25.550Z,12.00
2023-04-07T06:54:29.635Z,9.00
2023-04-07T06:59:32.547Z,11.00
2023-04-07T07:04:35.993Z,25.00
2023-04-07T07:09:40.465Z,20.80
2023-04-07T07:14:43.194Z,22.40
2023-04-07T07:19:46.095Z,16.40
2023-04-07T07:24:51.166Z,16.00
2023-04-07T07:29:54.040Z,18.00
2023-04-07T07:34:56.825Z,13.25
2023-04-07T07:40:01.611Z,13.00
2023-04-07T07:45:05.104Z,13.00
2023-04-07T07:50:08.373Z,10.75
2023-04-07T07:55:12.639Z,10.75
2023-04-07T08:00:15.694Z,9.50
2023-04-07T08:05:18.491Z,11.00
2023-04-07T08:10:24.823Z,10.00
2023-04-07T08:15:27.709Z,11.00
2023-04-07T08:20:30.617Z,10.25
2023-04-07T08:25:36.142Z,10.00
2023-04-07T08:30:39.053Z,10.00
2023-04-07T08:35:42.168Z,9.50
2023-04-07T08:40:47.606Z,9.50
2023-04-07T08:45:53.504Z,9.00
2023-04-07T08:50:57.660Z,8.50
2023-04-07T08:56:03.277Z,8.00
2023-04-07T09:01:07.022Z,63.20
2023-04-07T09:06:11.817Z,108.00
2023-04-07T09:11:16.006Z,95.40
2023-04-07T09:16:19.737Z,119.67
2023-04-07T09:21:22.631Z,121.00
2023-04-07T09:26:30.395Z,120.00
2023-04-07T09:31:46.727Z,93.60
2023-04-07T09:36:49.498Z,101.33
2023-04-07T09:41:54.021Z,79.40
2023-04-07T09:46:58.092Z,84.00
2023-04-07T09:52:07.434Z,74.00
2023-04-07T09:57:13.683Z,76.80
2023-04-07T10:02:16.814Z,75.60
2023-04-07T10:07:19.767Z,70.80
2023-04-07T10:12:24.898Z,68.80
2023-04-07T10:17:29.391Z,65.80
2023-04-07T10:22:34.374Z,65.80
2023-04-07T10:27:49.981Z,59.60
2023-04-07T10:32:54.883Z,54.60
2023-04-07T10:38:16.239Z,52.00
2023-04-07T10:43:39.812Z,51.40
2023-04-07T10:48:42.696Z,48.60
2023-04-07T10:54:20.528Z,48.40
2023-04-07T10:59:27.572Z,38.40
2023-04-07T11:04:37.768Z,38.60
2023-04-07T11:09:42.358Z,37.20
2023-04-07T11:14:46.535Z,36.00
2023-04-07T11:19:53.125Z,35.20
2023-04-07T11:24:56.023Z,33.00
2023-04-07T11:30:00.461Z,36.20
2023-04-07T11:35:07.775Z,35.40
2023-04-07T11:40:11.662Z,35.00
2023-04-07T11:45:20.803Z,34.00
2023-04-07T11:50:44.593Z,34.80
2023-04-07T11:55:47.725Z,34.40
2023-04-07T12:00:58.607Z,34.00
2023-04-07T12:06:02.172Z,34.00
2023-04-07T12:11:05.704Z,34.00
2023-04-07T12:16:10.202Z,33.80
2023-04-07T12:21:13.086Z,35.00
2023-04-07T12:26:16.292Z,27.00
2023-04-07T12:31:20.557Z,28.60
2023-04-07T12:36:23.359Z,27.40
2023-04-07T12:41:27.650Z,26.80
2023-04-07T12:46:32.120Z,26.40
2023-04-07T12:51:35.514Z,24.40
2023-04-07T12:56:38.297Z,25.80
2023-04-07T13:01:42.678Z,25.00
2023-04-07T13:06:45.605Z,25.00
2023-04-07T13:11:48.572Z,24.80
2023-04-07T13:16:52.762Z,22.80
2023-04-07T13:21:55.902Z,22.40
2023-04-07T13:26:59.489Z,22.20
2023-04-07T13:32:07.883Z,16.60
2023-04-07T13:37:11.330Z,16.20
2023-04-07T13:42:17.715Z,13.00
2023-04-07T13:47:22.594Z,14.00
2023-04-07T13:52:25.419Z,11.25
2023-04-07T13:57:28.457Z,11.75
2023-04-07T14:02:32.959Z,9.50
2023-04-07T14:07:36.071Z,12.25
2023-04-07T14:12:39.093Z,12.75
2023-04-07T14:17:43.269Z,10.50
2023-04-07T14:22:46.333Z,9.75
2023-04-07T14:27:49.382Z,10.00
2023-04-07T14:32:53.593Z,10.50
2023-04-07T14:37:56.629Z,10.00
2023-04-07T14:48:07.760Z,11.00
2023-04-07T14:53:10.608Z,9.25
2023-04-07T14:58:13.487Z,11.50
2023-04-07T15:03:17.822Z,10.33
2023-04-07T15:08:21.130Z,11.50
2023-04-07T15:13:24.054Z,10.50
2023-04-07T15:18:28.342Z,11.00
2023-04-07T15:23:32.138Z,10.25
2023-04-07T15:28:35.160Z,11.00
2023-04-07T15:33:40.762Z,9.00
2023-04-07T15:38:43.608Z,10.67
2023-04-07T15:43:46.848Z,9.75
2023-04-07T15:48:51.823Z,9.25
2023-04-07T15:53:55.292Z,10.25
2023-04-07T15:58:58.121Z,10.25
2023-04-07T16:04:02.535Z,9.00
2023-04-07T16:09:05.665Z,10.00
2023-04-07T16:14:09.288Z,7.50
2023-04-07T16:19:14.376Z,8.50
2023-04-07T16:24:17.186Z,9.25
2023-04-07T16:29:21.094Z,10.00
2023-04-07T16:34:25.177Z,8.50
2023-04-07T16:39:29.578Z,9.25
2023-04-07T16:44:33.053Z,8.00
2023-04-07T16:49:37.920Z,10.25
2023-04-07T16:54:40.673Z,11.00
2023-04-07T16:59:44.104Z,11.00
2023-04-07T17:04:48.258Z,8.50
2023-04-07T17:09:50.994Z,7.75
2023-04-07T17:14:53.736Z,20.80
2023-04-07T17:19:59.849Z,16.60
2023-04-07T17:25:02.736Z,12.40
2023-04-07T17:30:07.583Z,10.25
2023-04-07T17:35:12.132Z,10.50
2023-04-07T17:40:15.344Z,10.25
2023-04-07T17:45:18.823Z,11.00
2023-04-07T17:50:22.946Z,9.50
2023-04-07T17:55:26.045Z,8.50
2023-04-07T18:00:29.231Z,8.50
2023-04-07T18:05:33.626Z,9.00
2023-04-07T18:10:36.544Z,9.00
2023-04-07T18:15:39.392Z,7.50
2023-04-07T18:20:43.668Z,8.25
2023-04-07T18:25:47.077Z,8.00
2023-04-07T18:30:49.862Z,6.50
2023-04-07T18:35:53.993Z,7.00
2023-04-07T18:40:56.873Z,7.00
2023-04-07T18:45:59.792Z,7.75
2023-04-07T18:51:04.130Z,7.75
2023-04-07T18:56:07.168Z,7.00
2023-04-07T19:01:10.049Z,5.75
2023-04-07T19:06:16.454Z,6.00
2023-04-07T19:11:19.289Z,6.00
2023-04-07T19:16:24.425Z,6.67
2023-04-07T19:21:28.724Z,5.50
2023-04-07T19:26:31.627Z,6.50
2023-04-07T19:31:34.421Z,6.50
2023-04-07T19:36:38.778Z,6.50
2023-04-07T19:41:41.714Z,5.00
2023-04-07T19:46:44.699Z,6.00
2023-04-07T19:51:49.125Z,6.50
2023-04-07T19:56:51.980Z,6.00
2023-04-07T20:01:54.933Z,5.00
2023-04-07T20:06:59.143Z,6.50
2023-04-07T20:12:02.147Z,6.00
2023-04-07T20:17:05.320Z,6.75
2023-04-07T20:22:10.068Z,5.75
2023-04-07T20:27:12.950Z,6.00
2023-04-07T20:32:15.765Z,5.00
2023-04-07T20:37:20.568Z,6.25
2023-04-07T20:42:23.361Z,5.25
2023-04-07T20:47:26.148Z,4.75
2023-04-07T20:52:30.260Z,6.00
2023-04-07T20:57:33.091Z,4.00
2023-04-07T21:02:36.109Z,6.00
2023-04-07T21:07:40.457Z,5.00
2023-04-07T21:12:43.244Z,5.50
2023-04-07T21:17:46.175Z,5.00
2023-04-07T21:22:50.409Z,5.75
2023-04-07T21:27:53.204Z,5.50
2023-04-07T21:32:56.008Z,5.00
2023-04-07T21:38:00.139Z,4.00
2023-04-07T21:43:02.974Z,5.00
2023-04-07T21:48:06.451Z,4.75
2023-04-07T21:53:10.934Z,3.25
2023-04-07T21:58:13.692Z,4.25
2023-04-07T22:03:17.073Z,3.75
2023-04-07T22:08:21.392Z,5.00
2023-04-07T22:13:24.211Z,3.25
2023-04-07T22:18:27.150Z,4.75
2023-04-07T22:23:31.292Z,5.00
2023-04-07T22:28:34.310Z,3.25
2023-04-07T22:33:37.682Z,4.00
2023-04-07T22:38:41.839Z,3.75
2023-04-07T22:43:44.583Z,4.25
2023-04-07T22:48:49.003Z,4.00
2023-04-07T22:53:53.399Z,4.00
2023-04-07T22:58:57.415Z,4.50
2023-04-07T23:04:00.447Z,4.50
2023-04-07T23:09:04.714Z,4.00
2023-04-07T23:14:07.911Z,4.00
2023-04-07T23:19:15.451Z,4.00
2023-04-07T23:24:20.010Z,4.00
2023-04-07T23:29:22.725Z,4.00
2023-04-07T23:34:25.954Z,3.25
2023-04-07T23:39:30.428Z,4.00
2023-04-07T23:44:33.213Z,4.00
2023-04-07T23:49:36.142Z,3.00
2023-04-07T23:54:40.235Z,3.00
2023-04-07T23:59:42.996Z,2.75
